Latest Coastal Weather Observations for Lucinda

IDQ60701

Issued at 8:02 am EST Friday 26 August 2016 (issued every 10 minutes, with the page automatically refreshed every 10 minutes)

About coastal observations | Map of coastal stations | Coastal observations for QLD | Marine services | Other Formats
Station Details ID: 032141 Name: LUCINDA POINT Lat: -18.52 Lon: 146.39 Height: 10.0 m
Data from the previous 72 hours. | See also: Recent months at Lucinda
Date/Time
EST
Temp
°C
Wind Pressure Rain since
9am
mm
Weather Cloud Vis
km
Sea
Height
m
Swell
Dir  Spd
kts
Gust
kts
hPa Trend Height
m
Period
s
Dir
26/08:00am 21.6 S 18 22 1015.7 - 0.0 - - - - - - -
26/07:30am 21.9 S 15 18 1015.2 - 0.0 - - - - - - -
26/07:00am 21.9 S 10 14 1014.8 - 0.0 - - - - - - -
26/06:30am 21.6 S 13 14 1014.3 - 0.0 - - - - - - -
26/06:00am 21.5 S 14 17 1014.0 - 0.0 - - - - - - -
26/05:30am 21.8 SSW 9 11 1013.4 - 0.0 - - - - - - -
26/05:00am 21.5 SSW 8 9 1013.1 - 0.0 - - - - - - -
26/04:30am 21.5 SW 12 14 1013.2 - 0.0 - - - - - - -
26/04:00am 21.4 SSW 11 14 1012.5 - 0.0 - - - - - - -
26/03:30am 21.8 SW 11 12 1013.1 - 0.0 - - - - - - -
26/03:00am 22.2 SW 7 9 1012.8 - 0.0 - - - - - - -
26/02:30am 22.6 CALM 0 0 1013.1 - 0.0 - - - - - - -
26/02:00am 22.8 SE 4 6 1013.0 - 0.0 - - - - - - -
26/01:30am 22.8 SE 5 7 1013.1 - 0.0 - - - - - - -
26/01:00am 23.0 ESE 8 10 1013.3 - 0.0 - - - - - - -
26/12:30am 23.0 ESE 7 10 1013.7 - 0.0 - - - - - - -
26/12:00am 23.1 ESE 9 13 1013.7 - 0.0 - - - - - - -
 
Date/Time
EST
Temp
°C
Wind Pressure Rain since
9am
mm
Weather Cloud Vis
km
Sea
Height
m
Swell
Dir  Spd
kts
Gust
kts
hPa Trend Height
m
Period
s
Dir
25/11:30pm 23.1 ESE 6 10 1014.1 - 0.0 - - - - - - -
25/11:00pm 23.1 ESE 6 9 1014.2 - 0.0 - - - - - - -
25/10:30pm 23.1 ESE 7 10 1014.1 - 0.0 - - - - - - -
25/10:00pm 23.0 ESE 6 8 1014.0 - 0.0 - - - - - - -
25/09:30pm 23.1 ESE 7 9 1013.9 - 0.0 - - - - - - -
25/09:00pm 23.0 ESE 6 9 1013.8 - 0.0 - - - - - - -
25/08:30pm 22.9 ESE 7 10 1013.9 - 0.0 - - - - - - -
25/08:00pm 22.9 ESE 8 10 1013.3 - 0.0 - - - - - - -
25/07:30pm 22.9 ESE 7 10 1013.2 - 0.0 - - - - - - -
25/07:00pm 22.9 ESE 7 12 1012.8 - 0.0 - - - - - - -
25/06:30pm 22.7 ESE 9 13 1012.4 - 0.0 - - - - - - -
25/06:00pm 22.7 ESE 10 14 1011.9 - 0.0 - - - - - - -
25/05:30pm 22.9 ESE 11 15 1011.8 - 0.0 - - - - - - -
25/05:00pm 23.1 ESE 9 14 1011.3 - 0.0 - - - - - - -
25/04:30pm 23.2 ESE 8 13 1010.9 - 0.0 - - - - - - -
25/04:00pm 23.1 SE 9 15 1010.6 - 0.0 - - - - - - -
25/03:30pm 23.2 SE 9 14 1010.5 - 0.0 - - - - - - -
25/03:00pm 23.6 SE 8 14 1010.3 - 0.0 - - - - - - -
25/02:30pm 23.4 ESE 8 14 1010.4 - 0.0 - - - - - - -
25/02:00pm 23.0 ESE 11 17 1010.5 - 0.0 - - - - - - -
25/01:30pm 23.2 SE 9 17 1010.5 - 0.0 - - - - - - -
25/01:00pm 23.5 SE 8 14 1011.1 - 0.0 - - - - - - -
25/12:30pm 23.4 ESE 8 15 1011.1 - 0.0 - - - - - - -
25/12:00pm 24.0 ESE 7 13 1011.6 - 0.0 - - - - - - -
25/11:30am 24.2 SE 8 13 1011.8 - 0.0 - - - - - - -
25/11:00am 23.9 SE 8 10 1012.2 - 0.0 - - - - - - -
25/10:30am 23.6 SE 8 10 1012.7 - 0.0 - - - - - - -
25/10:00am 23.7 SSE 7 10 1012.9 - 0.0 - - - - - - -
25/09:30am 23.4 SE 6 8 1012.9 - 0.0 - - - - - - -
25/09:00am 23.2 SE 6 7 1012.5 - 0.0 - - - - - - -
25/08:30am 23.5 S 6 8 1012.6 - 0.0 - - - - - - -
25/08:00am 23.2 SSW 5 8 1012.3 - 0.0 - - - - - - -
25/07:30am 23.0 SW 10 11 1011.8 - 0.0 - - - - - - -
25/07:00am 23.1 SW 7 9 1011.9 - 0.0 - - - - - - -
25/06:30am 23.3 SSW 9 11 1011.5 - 0.0 - - - - - - -
25/06:00am 23.2 SSW 5 7 1011.1 - 0.0 - - - - - - -
25/05:30am 23.3 S 8 9 1010.7 - 0.0 - - - - - - -
25/05:00am 23.4 S 11 13 1010.4 - 0.0 - - - - - - -
25/04:30am 23.7 SSE 12 14 1010.1 - 0.0 - - - - - - -
25/04:00am 23.7 S 12 15 1010.1 - 0.0 - - - - - - -
25/03:30am 23.7 S 13 15 1010.1 - 0.0 - - - - - - -
25/03:00am 23.8 S 13 16 1010.1 - 0.0 - - - - - - -
25/02:30am 24.0 S 13 15 1010.3 - 0.0 - - - - - - -
25/02:00am 24.1 SSW 9 12 1010.4 - 0.0 - - - - - - -
25/01:30am 23.7 SW 8 11 1010.6 - 0.0 - - - - - - -
25/01:00am 24.0 S 10 11 1010.6 - 0.0 - - - - - - -
25/12:30am 23.8 SSW 9 11 1010.8 - 0.0 - - - - - - -
25/12:00am 24.3 SSW 9 11 1011.0 - 0.0 - - - - - - -
 
Date/Time
EST
Temp
°C
Wind Pressure Rain since
9am
mm
Weather Cloud Vis
km
Sea
Height
m
Swell
Dir  Spd
kts
Gust
kts
hPa Trend Height
m
Period
s
Dir
24/11:30pm 24.2 NNW 6 9 1010.8 - 0.0 - - - - - - -
24/11:00pm 24.3 N 13 16 1010.5 - 0.0 - - - - - - -
24/10:30pm 24.5 NNW 9 14 1010.4 - 0.0 - - - - - - -
24/10:00pm 24.6 NNW 15 18 1010.4 - 0.0 - - - - - - -
24/09:30pm 24.4 NNW 18 20 1010.0 - 0.0 - - - - - - -
24/09:00pm 24.3 NNW 18 20 1010.0 - 0.0 - - - - - - -
24/08:30pm 24.4 NNW 21 23 1009.8 - 0.0 - - - - - - -
24/08:00pm 24.4 NNW 22 25 1009.7 - 0.0 - - - - - - -
24/07:30pm 24.4 NNW 19 23 1009.4 - 0.0 - - - - - - -
24/07:00pm 24.4 NNW 17 19 1009.2 - 0.0 - - - - - - -
24/06:30pm 24.1 NNW 17 20 1008.7 - 0.0 - - - - - - -
24/06:00pm 24.1 NNW 18 22 1008.0 - 0.0 - - - - - - -
24/05:30pm 24.2 NNW 18 24 1007.6 - 0.0 - - - - - - -
24/05:00pm 23.9 NNW 21 24 1007.3 - 0.0 - - - - - - -
24/04:30pm 23.8 N 20 24 1007.1 - 0.0 - - - - - - -
24/04:00pm 23.8 N 18 21 1007.3 - 0.0 - - - - - - -
24/03:30pm 24.0 N 19 22 1007.4 - 0.0 - - - - - - -
24/03:00pm 23.8 N 20 23 1007.4 - 0.0 - - - - - - -
24/02:30pm 23.9 N 19 24 1007.8 - 0.0 - - - - - - -
24/02:00pm 24.2 N 16 19 1008.4 - 0.0 - - - - - - -
24/01:30pm 24.0 N 15 18 1008.9 - 0.0 - - - - - - -
24/01:00pm 24.2 N 16 19 1009.2 - 0.0 - - - - - - -
24/12:30pm 24.3 N 19 22 1009.5 - 0.0 - - - - - - -
24/12:00pm 24.2 N 13 17 1010.3 - 0.0 - - - - - - -
24/11:30am 24.6 N 9 11 1010.9 - 0.0 - - - - - - -
24/11:00am 24.2 NNE 7 8 1011.5 - 0.0 - - - - - - -
24/10:30am 25.2 E 3 4 1012.1 - 0.0 - - - - - - -
24/10:00am 25.6 CALM 0 0 1012.5 - 0.0 - - - - - - -
24/09:30am 23.9 CALM 0 2 1012.7 - 0.0 - - - - - - -
24/09:00am 22.5 SSW 1 4 1012.7 - 0.0 - - - - - - -
24/08:30am 22.2 SW 5 7 1012.6 - 0.0 - - - - - - -
24/08:00am 21.6 SW 7 9 1012.2 - 0.0 - - - - - - -
24/07:30am 21.1 SW 7 10 1011.9 - 0.0 - - - - - - -
24/07:00am 20.9 WSW 10 12 1011.8 - 0.0 - - - - - - -
24/06:30am 20.8 WSW 8 10 1011.4 - 0.0 - - - - - - -
24/06:00am 20.8 SW 11 13 1010.8 - 0.0 - - - - - - -
24/05:30am 23.1 NNW 15 17 1009.7 - 0.0 - - - - - - -
24/05:00am 23.1 NNW 11 14 1009.5 - 0.0 - - - - - - -
24/04:30am 22.4 S 4 5 1009.7 - 0.0 - - - - - - -
24/04:00am 22.1 SSW 5 6 1009.5 - 0.0 - - - - - - -
24/03:30am 22.3 SSW 3 5 1009.4 - 0.0 - - - - - - -
24/03:00am 22.4 SW 6 8 1009.6 - 0.0 - - - - - - -
24/02:30am 22.7 WNW 6 11 1009.8 - 0.0 - - - - - - -
24/02:00am 23.0 NNW 12 14 1009.8 - 0.0 - - - - - - -
24/01:30am 22.9 NNW 12 14 1010.2 - 0.0 - - - - - - -
24/01:00am 23.0 NNW 16 18 1010.3 - 0.0 - - - - - - -
24/12:30am 23.0 NNW 12 14 1010.8 - 0.0 - - - - - - -
24/12:00am 23.0 NNW 10 12 1011.2 - 0.0 - - - - - - -
 
Date/Time
EST
Temp
°C
Wind Pressure Rain since
9am
mm
Weather Cloud Vis
km
Sea
Height
m
Swell
Dir  Spd
kts
Gust
kts
hPa Trend Height
m
Period
s
Dir
23/11:30pm 23.0 NNW 11 13 1011.3 - 0.0 - - - - - - -
23/11:00pm 23.0 NNW 10 11 1011.5 - 0.0 - - - - - - -
23/10:30pm 22.9 NNW 9 10 1011.6 - 0.0 - - - - - - -
23/10:00pm 22.9 NNW 9 10 1011.7 - 0.0 - - - - - - -
23/09:30pm 23.0 NNW 11 13 1011.5 - 0.0 - - - - - - -
23/09:00pm 23.2 NNW 10 12 1011.3 - 0.0 - - - - - - -
23/08:30pm 23.1 N 8 11 1011.1 - 0.0 - - - - - - -
23/08:00pm 23.2 NNW 9 11 1010.9 - 0.0 - - - - - - -
23/07:30pm 23.3 NNW 9 11 1010.8 - 0.0 - - - - - - -
23/07:00pm 23.4 N 10 13 1010.4 - 0.0 - - - - - - -
23/06:30pm 23.4 N 11 13 1009.8 - 0.0 - - - - - - -
23/06:00pm 23.4 N 9 11 1009.6 - 0.0 - - - - - - -
23/05:30pm 24.0 N 11 13 1009.3 - 0.0 - - - - - - -
23/05:00pm 23.3 NNE 15 18 1009.0 - 0.0 - - - - - - -
23/04:30pm 23.3 NNE 14 17 1008.9 - 0.0 - - - - - - -
23/04:00pm 23.3 NNE 13 15 1009.0 - 0.0 - - - - - - -
23/03:30pm 23.1 NE 13 15 1009.1 - 0.0 - - - - - - -
23/03:00pm 23.2 NNE 12 14 1009.1 - 0.0 - - - - - - -
23/02:30pm 24.0 N 10 14 1009.3 - 0.0 - - - - - - -
23/02:00pm 23.8 NNE 8 11 1009.6 - 0.0 - - - - - - -
23/01:30pm 22.8 NNE 7 10 1010.1 - 0.0 - - - - - - -
23/01:00pm 23.6 ENE 6 8 1010.6 - 0.0 - - - - - - -
23/12:30pm 24.1 ESE 5 6 1011.2 - 0.0 - - - - - - -
23/12:00pm 24.4 ESE 5 6 1011.7 - 0.0 - - - - - - -
23/11:30am 24.4 SSE 2 4 1012.3 - 0.0 - - - - - - -
23/11:00am 22.7 S 5 6 1012.7 - 0.0 - - - - - - -
23/10:30am 22.7 S 4 5 1013.1 - 0.0 - - - - - - -
23/10:00am 21.9 SW 3 5 1013.3 - 0.0 - - - - - - -
23/09:30am 21.5 SW 4 6 1013.3 - 0.0 - - - - - - -
23/09:00am 21.2 SW 7 7 1013.4 - 0.0 - - - - - - -
23/08:30am 20.9 SW 7 8 1013.3 - 0.0 - - - - - - -

Other Formats:

Comma delimited format used in spreadsheet applications
http://www.bom.gov.au/fwo/IDQ60701/IDQ60701.94295.axf

JavaScript Object Notation format (JSON) in row-major order
http://www.bom.gov.au/fwo/IDQ60701/IDQ60701.94295.json